Time;durP1;ratioP1;P1;durP2;ratioP2;P2;SDS_P1;SDS_P2;PMS_P1;PMS_P2;Temp;Humidity;BMP_temperature;BMP_pressure;BME280_temperature;BME280_humidity;BME280_pressure;Samples;Min_cycle;Max_cycle;Signal;HPM_P1;HPM_P2
2022/01/23 00:00:50;;;;;;;2.40;1.75;;;17.00;59.70;;;;;;5013940;28;20030;-65
2022/01/23 00:03:18;;;;;;;3.17;1.60;;;17.10;59.70;;;;;;5008604;28;20030;-65
2022/01/23 00:05:44;;;;;;;1.85;1.40;;;17.10;59.60;;;;;;5009969;28;20021;-65
2022/01/23 00:08:12;;;;;;;2.05;1.27;;;17.10;59.50;;;;;;5015230;28;20113;-65
2022/01/23 00:10:37;;;;;;;3.40;1.35;;;17.10;59.50;;;;;;5014186;28;20030;-65
2022/01/23 00:13:10;;;;;;;2.50;1.40;;;17.10;59.50;;;;;;5009190;28;20083;-65
2022/01/23 00:18:21;;;;;;;1.90;1.08;;;17.10;59.60;;;;;;5018762;28;20088;-65
2022/01/23 00:20:47;;;;;;;2.17;1.40;;;17.10;59.60;;;;;;5010120;28;20437;-66
2022/01/23 00:23:27;;;;;;;5.30;1.65;;;17.10;59.60;;;;;;5013794;28;20724;-65
2022/01/23 00:31:23;;;;;;;3.50;1.25;;;17.10;59.30;;;;;;4990368;28;20446;-66
2022/01/23 00:33:49;;;;;;;2.50;1.30;;;17.10;59.20;;;;;;5020995;28;20116;-62
2022/01/23 00:36:14;;;;;;;2.60;1.40;;;17.20;59.20;;;;;;5015713;28;20615;-65
2022/01/23 00:38:40;;;;;;;3.00;1.42;;;17.10;59.10;;;;;;5009939;28;20084;-65
2022/01/23 00:41:05;;;;;;;1.95;1.20;;;17.10;59.00;;;;;;5011824;28;20437;-66
2022/01/23 00:43:33;;;;;;;3.13;1.25;;;17.10;59.00;;;;;;5010617;28;20033;-66
2022/01/23 00:46:59;;;;;;;2.55;1.60;;;17.10;59.00;;;;;;5015079;28;20492;-66
2022/01/23 00:51:32;;;;;;;1.85;0.85;;;17.10;58.90;;;;;;5011626;28;20527;-66
2022/01/23 00:53:58;;;;;;;;;;;17.10;59.00;;;;;;5007252;28;20673;-63
2022/01/23 00:56:24;;;;;;;2.63;1.13;;;17.10;59.00;;;;;;5017321;28;19910;-62
2022/01/23 00:58:49;;;;;;;1.95;0.93;;;17.10;59.00;;;;;;5008125;28;20053;-61
2022/01/23 01:01:15;;;;;;;1.55;1.17;;;17.10;59.60;;;;;;5020960;28;20486;-63
2022/01/23 01:03:41;;;;;;;2.75;1.17;;;17.20;58.90;;;;;;5004234;28;20145;-65
2022/01/23 01:06:06;;;;;;;2.05;1.08;;;17.10;58.90;;;;;;5021826;28;20084;-61
2022/01/23 01:08:32;;;;;;;2.53;0.98;;;17.10;58.90;;;;;;5015878;28;20041;-62
2022/01/23 01:14:06;;;;;;;1.45;0.85;;;17.10;58.70;;;;;;5015910;28;20041;-63
2022/01/23 01:16:56;;;;;;;2.08;1.15;;;17.20;58.80;;;;;;5012694;28;20042;-65
2022/01/23 01:33:19;;;;;;;1.45;0.70;;;17.20;58.80;;;;;;4994374;28;20069;-64
2022/01/23 01:38:36;;;;;;;1.10;0.65;;;17.20;58.70;;;;;;4985619;28;20109;-64
2022/01/23 01:41:02;;;;;;;2.55;0.82;;;17.20;58.70;;;;;;5009553;28;20083;-62
2022/01/23 01:43:27;;;;;;;0.85;0.75;;;17.20;58.70;;;;;;5008382;28;20022;-64
2022/01/23 01:45:53;;;;;;;2.50;0.90;;;17.20;58.70;;;;;;5011414;28;20492;-62
2022/01/23 01:48:23;;;;;;;0.77;0.70;;;17.20;58.70;;;;;;5022778;28;20034;-65
2022/01/23 01:50:49;;;;;;;0.77;0.70;;;17.20;58.70;;;;;;5015614;28;20021;-63
2022/01/23 01:53:14;;;;;;;3.22;1.10;;;17.20;58.70;;;;;;5009839;28;20412;-61
2022/01/23 01:55:44;;;;;;;1.77;0.50;;;17.20;58.70;;;;;;5007775;28;20108;-63
2022/01/23 01:58:32;;;;;;;1.58;0.80;;;17.20;58.70;;;;;;5014390;28;20049;-66
2022/01/23 02:01:00;;;;;;;1.73;0.80;;;17.20;58.70;;;;;;5009415;28;20038;-63
2022/01/23 02:08:45;;;;;;;1.17;0.75;;;17.30;58.70;;;;;;5023379;28;20052;-63
2022/01/23 02:11:17;;;;;;;1.30;0.68;;;17.30;58.60;;;;;;5019404;28;20124;-65
2022/01/23 02:13:57;;;;;;;0.93;0.68;;;17.20;58.50;;;;;;5017531;28;20113;-63
2022/01/23 02:51:36;;;;;;;0.73;0.55;;;17.30;57.50;;;;;;5005604;28;20103;-64
2022/01/23 02:54:19;;;;;;;2.00;0.80;;;17.30;57.40;;;;;;5003649;28;20034;-63
2022/01/23 02:56:48;;;;;;;0.82;0.60;;;17.30;57.40;;;;;;5004604;28;20026;-62
2022/01/23 02:59:26;;;;;;;1.00;0.63;;;17.30;57.30;;;;;;5011559;28;20033;-63
2022/01/23 03:02:12;;;;;;;1.83;0.52;;;17.40;57.30;;;;;;5012386;28;20030;-62
2022/01/23 03:04:41;;;;;;;0.80;0.52;;;17.40;57.20;;;;;;5024166;28;20041;-64
2022/01/23 03:07:29;;;;;;;1.17;0.80;;;17.40;57.20;;;;;;5011780;28;20038;-59
2022/01/23 03:29:19;;;;;;;1.10;0.57;;;17.30;56.80;;;;;;5008446;28;20042;-62
2022/01/23 03:34:16;;;;;;;1.42;0.73;;;17.30;56.80;;;;;;5024775;28;20124;-62
2022/01/23 03:36:41;;;;;;;0.57;0.52;;;17.30;56.80;;;;;;5022447;28;20116;-63
2022/01/23 03:39:07;;;;;;;0.70;0.50;;;17.30;56.70;;;;;;5010879;28;20033;-62
2022/01/23 03:41:37;;;;;;;0.80;0.70;;;17.30;56.70;;;;;;5009801;28;20464;-62
2022/01/23 03:44:05;;;;;;;0.68;0.50;;;17.30;56.80;;;;;;5012267;28;20064;-63
2022/01/23 03:46:47;;;;;;;0.82;0.60;;;17.30;56.70;;;;;;5010390;28;20042;-63
2022/01/23 03:49:31;;;;;;;1.05;0.68;;;17.30;56.60;;;;;;5009939;28;20030;-63
2022/01/23 03:52:04;;;;;;;0.70;0.50;;;17.30;56.60;;;;;;5008441;28;20068;-65
2022/01/23 03:54:30;;;;;;;3.13;0.77;;;17.30;56.60;;;;;;5020326;28;20037;-66
2022/01/23 03:56:57;;;;;;;0.80;0.60;;;17.30;56.60;;;;;;5015955;28;20538;-65
2022/01/23 03:59:22;;;;;;;0.90;0.73;;;17.30;56.50;;;;;;5011501;28;20454;-64
2022/01/23 04:01:48;;;;;;;1.00;0.73;;;17.30;56.50;;;;;;5010661;28;20054;-61
2022/01/23 04:04:37;;;;;;;1.67;0.70;;;17.30;56.50;;;;;;5007442;28;20517;-62
2022/01/23 04:07:14;;;;;;;0.75;0.60;;;17.30;56.60;;;;;;5020473;28;20484;-64
2022/01/23 04:09:40;;;;;;;0.77;0.70;;;17.20;56.50;;;;;;5019304;28;20063;-62
2022/01/23 04:12:08;;;;;;;1.10;0.70;;;17.30;56.50;;;;;;5017014;28;20132;-62
2022/01/23 04:14:36;;;;;;;1.20;1.10;;;17.30;56.50;;;;;;5023857;28;20026;-61
2022/01/23 04:20:22;;;;;;;1.13;0.70;;;17.30;56.50;;;;;;5016310;28;20036;-65
2022/01/23 04:33:47;;;;;;;1.13;0.60;;;17.20;56.50;;;;;;5021937;28;20063;-65
2022/01/23 04:48:27;;;;;;;1.35;0.80;;;17.20;56.50;;;;;;5020667;28;20029;-60
2022/01/23 05:01:22;;;;;;;2.97;0.80;;;17.20;56.50;;;;;;5001598;28;20473;-62
2022/01/23 05:06:25;;;;;;;0.63;0.43;;;17.20;56.50;;;;;;5008417;28;20522;-62
2022/01/23 05:08:51;;;;;;;1.45;0.52;;;17.10;56.70;;;;;;5016400;28;20026;-65
2022/01/23 05:11:16;;;;;;;0.95;0.60;;;17.10;56.90;;;;;;5011166;28;20018;-62
2022/01/23 05:13:42;;;;;;;0.60;0.45;;;17.10;57.00;;;;;;5011029;28;20026;-64
2022/01/23 05:16:08;;;;;;;0.50;0.50;;;17.10;57.00;;;;;;5014476;28;20033;-65
2022/01/23 05:18:35;;;;;;;0.88;0.60;;;17.10;57.00;;;;;;5010246;28;20049;-62
2022/01/23 05:21:15;;;;;;;0.73;0.50;;;17.10;57.00;;;;;;5002083;28;20180;-65
2022/01/23 05:23:40;;;;;;;1.15;0.52;;;17.10;57.00;;;;;;5013989;28;20036;-62
2022/01/23 05:26:06;;;;;;;0.85;0.85;;;17.00;56.90;;;;;;5007181;28;20051;-61
2022/01/23 05:28:31;;;;;;;1.90;0.73;;;17.10;57.00;;;;;;5003948;28;20112;-61
2022/01/23 05:30:57;;;;;;;1.05;0.77;;;17.10;57.00;;;;;;5000312;28;20037;-60
2022/01/23 05:33:22;;;;;;;2.58;0.70;;;17.10;57.00;;;;;;5003907;28;20149;-62
2022/01/23 05:35:48;;;;;;;1.42;0.75;;;17.10;57.00;;;;;;5018042;28;20034;-65
2022/01/23 05:38:13;;;;;;;1.67;0.70;;;17.10;57.10;;;;;;5002125;28;20033;-62
2022/01/23 05:40:40;;;;;;;1.95;0.60;;;17.10;57.00;;;;;;4999630;28;20143;-65
2022/01/23 05:43:05;;;;;;;2.67;0.60;;;17.10;57.00;;;;;;5016127;28;20312;-61
2022/01/23 05:45:31;;;;;;;1.30;0.50;;;17.10;56.90;;;;;;5009988;28;20117;-65
2022/01/23 05:47:56;;;;;;;1.23;0.73;;;17.20;57.00;;;;;;5003980;28;20045;-62
2022/01/23 05:50:22;;;;;;;0.73;0.60;;;17.10;56.90;;;;;;5010361;28;20107;-60
2022/01/23 05:52:47;;;;;;;1.75;0.70;;;17.20;56.90;;;;;;5009856;28;20026;-62
2022/01/23 05:55:14;;;;;;;1.73;0.40;;;17.20;56.80;;;;;;5014729;28;20539;-60
2022/01/23 05:57:40;;;;;;;0.95;0.50;;;17.20;56.80;;;;;;5021182;28;20026;-64
2022/01/23 06:00:06;;;;;;;1.13;0.68;;;17.20;56.70;;;;;;5005348;28;20038;-60
2022/01/23 06:02:31;;;;;;;1.08;0.60;;;17.20;56.70;;;;;;5011879;28;20124;-61
2022/01/23 06:04:57;;;;;;;1.40;0.55;;;17.20;56.70;;;;;;5014700;28;20396;-65
2022/01/23 06:07:22;;;;;;;0.98;0.52;;;17.20;56.70;;;;;;5003294;28;20042;-63
2022/01/23 06:09:48;;;;;;;3.70;0.77;;;17.20;56.60;;;;;;5012222;28;20113;-61
2022/01/23 06:12:13;;;;;;;2.55;0.52;;;17.10;56.60;;;;;;4998857;28;20065;-63
2022/01/23 06:14:39;;;;;;;0.63;0.50;;;17.20;56.70;;;;;;5014897;28;20088;-63
2022/01/23 06:17:04;;;;;;;0.63;0.50;;;17.20;56.70;;;;;;5007269;28;20033;-61
2022/01/23 06:19:32;;;;;;;3.00;0.70;;;17.10;56.60;;;;;;5003942;28;20382;-65
2022/01/23 06:21:58;;;;;;;1.00;0.70;;;17.20;56.60;;;;;;5012003;28;20576;-64
2022/01/23 06:24:26;;;;;;;1.10;0.70;;;17.20;56.60;;;;;;5004936;28;20121;-66
2022/01/23 06:26:53;;;;;;;0.80;0.50;;;17.20;56.50;;;;;;5013271;28;20021;-64
2022/01/23 06:29:19;;;;;;;0.85;0.80;;;17.10;56.50;;;;;;5010194;28;20435;-61
2022/01/23 06:31:48;;;;;;;1.27;0.60;;;17.10;56.50;;;;;;5011634;28;20030;-61
2022/01/23 06:34:15;;;;;;;2.60;0.50;;;17.10;56.40;;;;;;5020121;28;20021;-61
2022/01/23 06:36:41;;;;;;;0.63;0.50;;;17.10;56.40;;;;;;5013046;28;20026;-61
2022/01/23 06:39:07;;;;;;;1.15;0.70;;;17.10;56.40;;;;;;5016338;28;20044;-66
2022/01/23 06:41:32;;;;;;;0.80;0.50;;;17.20;56.40;;;;;;5010108;28;20119;-65
2022/01/23 06:43:58;;;;;;;0.80;0.50;;;17.10;56.40;;;;;;5006494;28;20049;-65
2022/01/23 06:46:23;;;;;;;1.55;0.60;;;17.10;56.40;;;;;;5021443;28;20033;-61
2022/01/23 06:48:49;;;;;;;0.88;0.60;;;17.10;56.40;;;;;;5006610;28;20030;-62
2022/01/23 06:51:14;;;;;;;1.42;0.60;;;17.10;56.40;;;;;;5009272;28;20022;-61
2022/01/23 06:53:40;;;;;;;3.22;0.80;;;17.10;57.00;;;;;;5019234;28;20021;-63
2022/01/23 06:56:05;;;;;;;0.80;0.50;;;17.10;56.30;;;;;;5008891;28;20091;-59
2022/01/23 06:58:31;;;;;;;0.47;0.47;;;17.10;56.30;;;;;;5012953;28;20026;-63
2022/01/23 07:00:56;;;;;;;0.82;0.52;;;17.10;56.40;;;;;;5008604;28;20026;-63
2022/01/23 07:03:22;;;;;;;0.82;0.47;;;17.10;56.30;;;;;;5024905;28;20064;-62
2022/01/23 07:05:47;;;;;;;1.13;0.47;;;17.10;56.30;;;;;;5018629;28;20494;-61
2022/01/23 07:08:13;;;;;;;1.02;0.60;;;17.10;56.40;;;;;;5005063;28;20026;-61
2022/01/23 07:10:38;;;;;;;0.50;0.50;;;17.10;56.30;;;;;;5008223;28;20029;-62
2022/01/23 07:13:04;;;;;;;1.52;0.50;;;17.10;56.40;;;;;;5005567;28;20519;-62
2022/01/23 07:15:29;;;;;;;0.60;0.50;;;17.10;56.30;;;;;;5012448;28;20029;-65
2022/01/23 07:17:55;;;;;;;0.55;0.40;;;17.10;56.30;;;;;;5024163;28;20095;-60
2022/01/23 07:20:20;;;;;;;0.80;0.50;;;17.10;56.30;;;;;;5017135;28;20036;-61
2022/01/23 07:22:46;;;;;;;1.90;0.70;;;17.10;56.30;;;;;;5021552;28;20590;-62
2022/01/23 07:25:11;;;;;;;1.02;0.70;;;17.10;56.30;;;;;;5009326;28;20586;-64
2022/01/23 07:27:42;;;;;;;11.65;4.30;;;17.10;56.30;;;;;;5006897;28;20061;-62
2022/01/23 07:30:20;;;;;;;25.60;8.98;;;17.10;56.50;;;;;;5025861;28;20033;-67
2022/01/23 07:32:46;;;;;;;27.52;11.25;;;17.10;56.50;;;;;;5006691;28;20040;-62
2022/01/23 07:35:11;;;;;;;24.88;9.73;;;17.10;56.70;;;;;;5026232;28;20030;-63
2022/01/23 07:37:37;;;;;;;22.67;9.60;;;17.10;57.10;;;;;;5020228;28;20811;-66
2022/01/23 07:40:03;;;;;;;28.45;10.35;;;17.10;57.80;;;;;;5006385;28;20036;-66
2022/01/23 07:42:28;;;;;;;23.38;10.43;;;17.10;58.30;;;;;;5017468;28;20037;-64
2022/01/23 07:44:54;;;;;;;24.98;9.48;;;17.10;58.50;;;;;;5015258;28;20048;-64
2022/01/23 07:47:22;;;;;;;25.48;11.10;;;17.10;58.60;;;;;;5015063;28;20026;-65
2022/01/23 07:49:49;;;;;;;21.52;10.23;;;17.10;58.70;;;;;;5015666;28;20034;-66
2022/01/23 07:52:18;;;;;;;18.15;9.57;;;17.10;59.00;;;;;;5011602;28;20053;-65
2022/01/23 07:54:44;;;;;;;24.38;9.80;;;17.10;59.20;;;;;;5012220;28;20064;-66
2022/01/23 07:57:09;;;;;;;22.00;8.93;;;17.10;59.30;;;;;;5022253;28;20053;-63
2022/01/23 07:59:35;;;;;;;17.67;7.30;;;17.10;59.20;;;;;;5024948;28;20407;-64
2022/01/23 08:02:01;;;;;;;17.27;7.50;;;17.00;59.10;;;;;;5022617;28;20480;-60
2022/01/23 08:04:26;;;;;;;18.00;7.05;;;17.00;58.90;;;;;;5020485;28;20038;-62
2022/01/23 08:07:07;;;;;;;14.27;6.93;;;17.00;58.80;;;;;;5016851;28;20532;-60
2022/01/23 08:09:33;;;;;;;14.07;6.72;;;17.00;58.60;;;;;;5005240;28;20050;-63
2022/01/23 08:11:58;;;;;;;14.50;6.20;;;17.00;58.50;;;;;;5005989;28;20025;-62
2022/01/23 08:14:24;;;;;;;20.30;5.82;;;17.00;58.40;;;;;;5013317;28;20447;-61
2022/01/23 08:16:49;;;;;;;12.18;5.90;;;17.00;58.30;;;;;;5008407;28;20038;-60
2022/01/23 08:19:15;;;;;;;14.20;5.95;;;17.00;58.10;;;;;;5012845;28;20037;-61
2022/01/23 08:21:40;;;;;;;12.75;5.35;;;17.00;58.10;;;;;;5017036;28;20403;-65
2022/01/23 08:24:06;;;;;;;13.80;4.95;;;17.00;58.00;;;;;;5020541;28;20112;-65
2022/01/23 08:26:32;;;;;;;11.02;5.30;;;17.00;57.80;;;;;;5014288;28;20025;-62
2022/01/23 08:28:57;;;;;;;10.18;4.63;;;17.00;57.60;;;;;;5021661;28;20051;-63
2022/01/23 08:31:23;;;;;;;9.93;4.00;;;17.00;57.60;;;;;;5018367;28;20114;-66
2022/01/23 08:33:48;;;;;;;12.73;4.65;;;17.00;57.50;;;;;;5013212;28;20030;-67
2022/01/23 08:36:14;;;;;;;10.90;4.78;;;17.00;57.40;;;;;;5014442;28;20104;-67
2022/01/23 08:38:40;;;;;;;33.05;10.73;;;17.00;57.30;;;;;;5013463;28;20028;-66
2022/01/23 08:43:37;;;;;;;32.25;13.50;;;17.10;58.60;;;;;;5017818;28;20031;-68
2022/01/23 08:46:03;;;;;;;37.90;13.10;;;17.10;59.10;;;;;;5021501;28;20109;-66
2022/01/23 08:48:29;;;;;;;35.42;12.30;;;17.10;59.30;;;;;;5019048;28;20040;-64
2022/01/23 08:50:54;;;;;;;31.85;11.10;;;17.10;59.40;;;;;;5019756;28;20033;-67
2022/01/23 08:53:20;;;;;;;29.17;10.10;;;17.10;59.30;;;;;;5011409;28;20034;-67
2022/01/23 08:55:47;;;;;;;32.17;10.00;;;17.10;59.40;;;;;;5022239;28;20074;-68
2022/01/23 08:58:14;;;;;;;30.73;10.90;;;17.10;59.30;;;;;;5011153;28;20448;-67
2022/01/23 09:00:39;;;;;;;21.33;9.18;;;17.10;59.60;;;;;;5023406;28;20166;-67
2022/01/23 09:03:05;;;;;;;21.52;8.57;;;17.10;59.60;;;;;;5022472;28;20033;-67
2022/01/23 09:05:30;;;;;;;21.42;8.73;;;17.10;59.60;;;;;;5017778;28;20029;-67
2022/01/23 09:07:56;;;;;;;24.92;8.43;;;17.10;59.60;;;;;;5015724;28;20033;-66
2022/01/23 09:10:26;;;;;;;26.85;8.68;;;17.10;59.60;;;;;;5018588;28;20045;-66
2022/01/23 09:13:05;;;;;;;19.88;7.63;;;17.10;59.50;;;;;;5018752;28;20590;-66
2022/01/23 09:15:31;;;;;;;18.52;6.55;;;17.10;59.40;;;;;;5023372;28;20084;-64
2022/01/23 09:17:56;;;;;;;16.35;5.72;;;17.10;59.10;;;;;;5013084;28;20045;-62
2022/01/23 09:20:22;;;;;;;15.02;5.90;;;17.20;58.90;;;;;;5007730;28;20520;-66
2022/01/23 09:22:47;;;;;;;18.25;6.38;;;17.20;58.80;;;;;;5008875;28;20030;-66
2022/01/23 09:25:13;;;;;;;15.98;5.53;;;17.20;58.70;;;;;;5019509;28;20056;-64
2022/01/23 09:27:40;;;;;;;16.65;5.97;;;17.10;58.50;;;;;;5015016;28;20657;-67
2022/01/23 09:30:16;;;;;;;14.57;5.53;;;17.10;58.40;;;;;;5014101;28;20025;-67
2022/01/23 09:32:43;;;;;;;12.95;5.00;;;17.10;58.30;;;;;;5018806;28;20636;-67
2022/01/23 09:35:09;;;;;;;13.70;5.20;;;17.10;58.30;;;;;;5015365;28;20516;-63
2022/01/23 09:37:34;;;;;;;20.65;5.28;;;17.10;58.20;;;;;;5011847;28;20034;-67
2022/01/23 09:40:00;;;;;;;12.27;4.93;;;17.10;58.20;;;;;;5014606;28;20095;-65
2022/01/23 09:42:50;;;;;;;9.98;3.88;;;17.10;58.20;;;;;;5012899;28;20033;-68
2022/01/23 09:45:16;;;;;;;12.38;4.68;;;17.10;58.10;;;;;;5018008;28;20029;-66
2022/01/23 09:47:41;;;;;;;11.15;3.65;;;17.10;58.10;;;;;;5008715;28;20041;-63
2022/01/23 09:50:08;;;;;;;9.43;4.38;;;17.10;58.10;;;;;;5007151;28;20116;-67
2022/01/23 09:52:35;;;;;;;10.07;3.92;;;17.10;58.00;;;;;;5008397;28;20037;-65
2022/01/23 09:55:07;;;;;;;9.32;4.32;;;17.10;58.00;;;;;;5007925;28;20088;-66
2022/01/23 09:57:33;;;;;;;13.27;4.30;;;17.00;57.90;;;;;;5007372;28;20030;-64
2022/01/23 09:59:59;;;;;;;8.75;4.50;;;17.10;58.00;;;;;;5013524;28;20033;-67
2022/01/23 10:02:24;;;;;;;12.63;4.32;;;17.00;57.90;;;;;;5016542;28;20033;-64
2022/01/23 10:04:51;;;;;;;9.38;4.13;;;17.10;57.90;;;;;;5017912;28;20021;-64
2022/01/23 10:07:17;;;;;;;8.02;3.50;;;17.10;57.90;;;;;;5009001;28;20026;-67
2022/01/23 10:09:42;;;;;;;6.10;3.67;;;17.10;58.00;;;;;;5009898;28;20044;-64
2022/01/23 10:12:08;;;;;;;9.98;3.42;;;17.10;57.90;;;;;;5006893;28;20068;-63
2022/01/23 10:14:35;;;;;;;7.43;3.80;;;17.00;57.80;;;;;;5014530;28;20488;-67
2022/01/23 10:17:05;;;;;;;7.05;3.53;;;17.00;57.80;;;;;;5026754;28;20044;-63
2022/01/23 10:19:30;;;;;;;7.40;3.35;;;17.10;57.80;;;;;;5021091;28;20760;-67
2022/01/23 10:21:57;;;;;;;9.80;3.17;;;17.00;57.70;;;;;;5016945;28;20383;-67
2022/01/23 10:24:22;;;;;;;6.45;3.08;;;17.00;57.70;;;;;;5019119;28;20030;-67
2022/01/23 10:26:52;;;;;;;4.93;2.97;;;17.00;57.70;;;;;;5006720;28;20095;-63
2022/01/23 10:29:25;;;;;;;6.10;3.00;;;17.00;57.70;;;;;;5020858;28;20025;-66
2022/01/23 10:32:01;;;;;;;5.45;2.90;;;17.00;57.60;;;;;;5009343;28;20029;-67
2022/01/23 10:34:43;;;;;;;5.07;2.60;;;17.00;57.60;;;;;;5016932;28;20664;-63
2022/01/23 10:37:09;;;;;;;5.80;2.80;;;17.00;57.60;;;;;;5011091;28;20046;-67
2022/01/23 10:39:45;;;;;;;6.75;2.90;;;17.00;57.60;;;;;;5017379;28;20053;-67
2022/01/23 10:42:46;;;;;;;5.80;2.70;;;17.00;57.60;;;;;;5018021;28;20173;-67
2022/01/23 10:48:56;;;;;;;5.18;2.33;;;17.00;57.50;;;;;;5006484;28;20120;-67
2022/01/23 10:51:36;;;;;;;7.50;2.75;;;17.00;57.50;;;;;;5012645;28;20030;-68
2022/01/23 10:54:07;;;;;;;5.90;2.55;;;17.00;57.50;;;;;;4921427;29;20033;-66
2022/01/23 10:57:00;;;;;;;5.68;2.92;;;17.00;57.50;;;;;;5000580;28;20087;-64
2022/01/23 10:59:26;;;;;;;5.25;2.28;;;17.00;57.40;;;;;;5002151;28;20096;-67
2022/01/23 11:02:05;;;;;;;4.38;2.30;;;16.90;57.40;;;;;;5019081;28;20029;-65
2022/01/23 11:04:33;;;;;;;5.55;2.30;;;17.00;57.40;;;;;;5012260;28;20037;-66
2022/01/23 11:07:01;;;;;;;5.28;2.30;;;17.00;57.40;;;;;;5016372;28;20049;-63
2022/01/23 11:09:34;;;;;;;4.57;2.28;;;17.00;57.40;;;;;;5019504;28;20040;-66
2022/01/23 11:12:05;;;;;;;5.75;2.42;;;17.00;57.50;;;;;;5006367;28;20509;-67
2022/01/23 11:17:25;;;;;;;5.13;2.28;;;16.90;57.40;;;;;;5025895;28;20040;-64
2022/01/23 11:19:56;;;;;;;3.72;2.45;;;16.90;57.40;;;;;;5019251;28;20025;-62
2022/01/23 11:22:28;;;;;;;3.38;1.77;;;17.00;57.40;;;;;;5022210;28;20049;-67
2022/01/23 11:24:57;;;;;;;5.78;1.95;;;16.90;57.30;;;;;;5016113;28;20121;-65
2022/01/23 11:27:22;;;;;;;5.53;1.75;;;16.90;57.40;;;;;;5021432;28;20037;-67
2022/01/23 11:30:00;;;;;;;3.42;1.70;;;16.90;57.30;;;;;;5027000;28;20503;-63
2022/01/23 11:32:29;;;;;;;3.40;1.73;;;16.90;57.30;;;;;;5026602;28;20125;-63
2022/01/23 11:35:04;;;;;;;4.80;1.77;;;16.90;57.30;;;;;;5023469;28;20091;-62
2022/01/23 11:37:29;;;;;;;2.50;1.60;;;16.90;57.30;;;;;;5015042;28;20029;-64
2022/01/23 11:40:00;;;;;;;4.10;2.28;;;16.90;57.30;;;;;;5018261;28;20037;-67
2022/01/23 11:56:24;;;;;;;2.58;1.60;;;16.90;57.30;;;;;;5012893;28;20056;-64
2022/01/23 11:59:15;;;;;;;3.58;1.98;;;16.90;57.30;;;;;;5005428;28;20528;-66
2022/01/23 12:01:42;;;;;;;3.33;1.90;;;16.90;57.30;;;;;;5007166;28;20533;-67
2022/01/23 12:04:11;;;;;;;4.85;1.75;;;16.90;57.30;;;;;;5014002;28;20084;-65
2022/01/23 12:06:38;;;;;;;2.92;1.30;;;16.90;57.30;;;;;;5007724;28;20027;-67
2022/01/23 12:09:13;;;;;;;2.15;1.42;;;16.90;57.30;;;;;;5021003;28;20025;-67
2022/01/23 12:11:47;;;;;;;3.87;1.70;;;16.90;57.30;;;;;;5015940;28;20490;-67
2022/01/23 12:16:54;;;;;;;3.63;1.58;;;16.90;57.30;;;;;;5011441;28;20033;-64
2022/01/23 12:19:21;;;;;;;2.50;1.25;;;16.90;57.20;;;;;;5020981;28;20448;-67
2022/01/23 12:21:47;;;;;;;2.97;1.63;;;16.90;57.30;;;;;;5021137;28;20156;-68
2022/01/23 12:24:14;;;;;;;3.65;1.80;;;16.90;57.20;;;;;;5014667;28;20026;-67
2022/01/23 12:26:41;;;;;;;1.95;1.40;;;16.90;57.20;;;;;;5005619;28;20058;-67
2022/01/23 12:29:18;;;;;;;1.58;1.10;;;16.90;57.20;;;;;;5016112;28;20038;-67
2022/01/23 12:31:44;;;;;;;2.22;1.10;;;16.90;57.20;;;;;;5019165;28;20053;-67
2022/01/23 12:34:09;;;;;;;2.42;1.55;;;16.90;57.20;;;;;;5008284;28;20034;-67
2022/01/23 12:36:37;;;;;;;1.67;1.35;;;16.90;57.10;;;;;;5023949;28;20037;-67
2022/01/23 12:39:09;;;;;;;2.67;1.42;;;16.80;57.10;;;;;;5023926;28;20083;-67
2022/01/23 12:41:39;;;;;;;1.40;1.20;;;16.90;57.20;;;;;;5008659;28;20044;-67
2022/01/23 12:44:09;;;;;;;3.53;1.73;;;16.80;57.10;;;;;;5015020;28;21681;-67
2022/01/23 12:46:35;;;;;;;3.45;1.40;;;16.80;57.20;;;;;;5009588;28;20761;-64
2022/01/23 12:49:22;;;;;;;2.17;1.40;;;16.90;57.20;;;;;;5021110;28;20041;-67
2022/01/23 12:51:49;;;;;;;2.30;1.38;;;16.80;57.20;;;;;;5010970;28;20030;-68
2022/01/23 12:54:20;;;;;;;1.98;1.10;;;16.80;57.20;;;;;;5015574;28;20715;-64
2022/01/23 12:56:47;;;;;;;2.92;1.55;;;16.80;57.20;;;;;;5008798;28;20026;-67
2022/01/23 12:59:23;;;;;;;1.85;1.10;;;16.80;57.10;;;;;;5006970;28;20115;-67
2022/01/23 13:01:54;;;;;;;2.28;1.40;;;16.80;57.20;;;;;;5010493;28;20026;-65
2022/01/23 13:04:20;;;;;;;2.67;1.50;;;16.80;57.20;;;;;;5007341;28;20187;-66
2022/01/23 13:06:51;;;;;;;2.17;1.30;;;16.80;57.20;;;;;;5016103;28;20697;-65
2022/01/23 13:09:48;;;;;;;1.48;1.00;;;16.80;57.10;;;;;;5007477;28;20744;-67
2022/01/23 13:12:15;;;;;;;2.00;1.15;;;16.80;57.10;;;;;;5002727;28;20034;-67
2022/01/23 13:15:38;;;;;;;2.42;1.13;;;16.80;57.10;;;;;;5012484;28;20053;-67
2022/01/23 13:32:00;;;;;;;1.88;1.25;;;16.70;57.10;;;;;;5020486;28;20068;-65
2022/01/23 13:34:27;;;;;;;2.22;1.52;;;16.70;57.20;;;;;;5010177;28;20060;-64
2022/01/23 13:37:05;;;;;;;1.95;1.35;;;16.80;57.20;;;;;;5006318;28;20060;-67
2022/01/23 13:39:37;;;;;;;1.40;1.13;;;16.70;57.20;;;;;;5005021;28;20038;-67
2022/01/23 13:42:10;;;;;;;1.92;1.20;;;16.70;57.20;;;;;;5018296;28;20573;-67
2022/01/23 13:53:07;;;;;;;1.83;1.30;;;16.70;57.20;;;;;;5013745;28;20088;-68
2022/01/23 13:58:37;;;;;;;1.70;0.98;;;16.70;57.10;;;;;;5007697;28;20033;-65
2022/01/23 14:01:18;;;;;;;2.05;1.30;;;16.70;57.10;;;;;;5023143;28;20527;-63
2022/01/23 14:03:43;;;;;;;3.42;1.20;;;16.70;57.10;;;;;;5012769;28;20037;-64
2022/01/23 14:06:09;;;;;;;1.20;0.95;;;16.70;57.10;;;;;;5015867;28;20488;-64
2022/01/23 14:08:35;;;;;;;1.30;1.10;;;16.70;57.10;;;;;;5016217;28;20794;-67
2022/01/23 14:11:00;;;;;;;3.10;1.10;;;16.70;57.10;;;;;;5004450;28;20030;-70
2022/01/23 14:13:26;;;;;;;1.67;1.10;;;16.70;57.10;;;;;;5008438;28;25356;-67
2022/01/23 14:15:53;;;;;;;1.20;1.00;;;16.70;57.10;;;;;;5006766;28;20041;-65
2022/01/23 14:18:29;;;;;;;1.08;0.98;;;16.70;57.10;;;;;;5014168;28;20061;-67
2022/01/23 14:21:11;;;;;;;1.35;1.08;;;16.70;57.10;;;;;;5013952;28;20412;-65
2022/01/23 14:23:36;;;;;;;1.35;1.02;;;16.70;57.10;;;;;;5005874;28;20125;-68
2022/01/23 14:26:10;;;;;;;1.92;1.20;;;16.70;57.10;;;;;;5013579;28;20326;-67
2022/01/23 14:28:36;;;;;;;1.27;1.17;;;16.70;57.10;;;;;;5014242;28;20388;-67
2022/01/23 14:31:04;;;;;;;1.60;1.27;;;16.70;57.10;;;;;;5016612;28;20025;-67
2022/01/23 14:33:34;;;;;;;1.40;1.02;;;16.70;57.10;;;;;;5010362;28;20109;-65
2022/01/23 14:36:15;;;;;;;1.95;1.30;;;16.70;57.10;;;;;;5007247;28;20432;-66
2022/01/23 14:38:51;;;;;;;1.73;1.30;;;16.70;57.10;;;;;;5004532;28;20356;-67
2022/01/23 14:41:17;;;;;;;2.33;0.98;;;16.70;57.10;;;;;;5016164;28;20200;-66
2022/01/23 14:43:42;;;;;;;2.03;1.17;;;16.70;57.10;;;;;;5011493;28;20025;-67
2022/01/23 14:46:10;;;;;;;2.08;1.02;;;16.70;57.10;;;;;;5006385;28;20075;-66
2022/01/23 14:48:40;;;;;;;1.65;1.15;;;16.70;57.10;;;;;;5014331;28;20029;-67
2022/01/23 14:51:06;;;;;;;1.10;0.90;;;16.70;57.10;;;;;;5002802;28;20049;-64
2022/01/23 14:53:33;;;;;;;1.65;1.10;;;16.70;57.10;;;;;;5002530;28;20085;-65
2022/01/23 14:56:00;;;;;;;1.98;0.90;;;16.70;57.10;;;;;;5012313;28;20060;-67
2022/01/23 14:58:25;;;;;;;1.73;1.33;;;16.70;57.10;;;;;;5010048;28;20044;-67
2022/01/23 15:00:53;;;;;;;1.30;1.20;;;16.70;57.10;;;;;;5018084;28;20489;-65
2022/01/23 15:03:18;;;;;;;1.50;1.05;;;16.70;57.10;;;;;;5010188;28;20466;-66
2022/01/23 15:05:44;;;;;;;1.48;1.17;;;16.70;57.10;;;;;;5026254;28;20033;-67
2022/01/23 15:08:12;;;;;;;1.40;1.08;;;16.70;57.10;;;;;;5023491;28;20030;-64
2022/01/23 15:10:38;;;;;;;1.80;1.05;;;16.70;57.10;;;;;;5015894;28;20554;-66
2022/01/23 15:13:06;;;;;;;1.30;1.20;;;16.70;57.10;;;;;;5022964;28;20030;-67
2022/01/23 15:15:32;;;;;;;2.00;1.30;;;16.70;57.10;;;;;;5006240;28;20682;-62
2022/01/23 15:17:57;;;;;;;1.25;0.95;;;16.70;57.10;;;;;;5014234;28;20053;-67
2022/01/23 15:20:23;;;;;;;2.40;1.40;;;16.70;57.10;;;;;;5009018;28;20040;-66
2022/01/23 15:22:48;;;;;;;1.35;1.10;;;16.70;57.10;;;;;;5024368;28;20622;-68
2022/01/23 15:25:15;;;;;;;1.30;1.00;;;16.70;57.10;;;;;;5011571;28;20026;-65
2022/01/23 15:27:40;;;;;;;2.20;1.17;;;16.70;57.10;;;;;;5006019;28;20044;-67
2022/01/23 15:30:07;;;;;;;2.05;1.20;;;16.70;57.10;;;;;;5021863;28;20040;-63
2022/01/23 15:32:33;;;;;;;1.83;1.50;;;16.60;57.00;;;;;;5021550;28;20033;-66
2022/01/23 15:34:58;;;;;;;2.15;1.15;;;16.70;57.10;;;;;;5014887;28;20690;-66
2022/01/23 15:37:24;;;;;;;1.40;1.27;;;16.60;57.00;;;;;;5009736;28;20034;-65
2022/01/23 15:39:51;;;;;;;1.65;1.33;;;16.70;57.10;;;;;;5009818;28;20515;-66
2022/01/23 15:42:17;;;;;;;1.30;1.20;;;16.60;57.00;;;;;;5017556;28;20018;-67
2022/01/23 15:44:42;;;;;;;2.10;1.55;;;16.60;57.00;;;;;;5023015;28;20025;-66
2022/01/23 15:47:08;;;;;;;1.98;1.35;;;16.60;57.10;;;;;;5024769;28;20041;-62
2022/01/23 15:49:33;;;;;;;2.03;1.60;;;16.60;57.10;;;;;;5022182;28;20613;-63
2022/01/23 15:52:00;;;;;;;2.58;1.90;;;16.60;57.70;;;;;;5016478;28;20689;-67
2022/01/23 15:54:26;;;;;;;1.92;1.42;;;16.60;57.10;;;;;;5021380;28;20029;-63
2022/01/23 15:56:54;;;;;;;2.08;1.33;;;16.60;57.10;;;;;;5014074;28;20044;-67